createdAt,value
2022-08-01T07:18:52.531Z,1.00
2022-08-01T07:21:38.594Z,1.00
2022-08-01T07:24:13.425Z,0.93
2022-08-01T07:26:53.117Z,0.90
2022-08-01T07:29:27.674Z,0.90
2022-08-01T07:31:55.729Z,0.97
2022-08-01T07:34:22.652Z,0.90
2022-08-01T07:36:49.560Z,0.90
2022-08-01T07:39:16.687Z,0.90
2022-08-01T07:41:53.318Z,1.00
2022-08-01T07:44:30.784Z,1.07
2022-08-01T07:46:58.028Z,0.90
2022-08-01T07:49:24.986Z,1.00
2022-08-01T07:52:03.867Z,0.87
2022-08-01T07:54:34.999Z,0.80
2022-08-01T07:57:02.497Z,1.10
2022-08-01T07:59:29.305Z,1.10
2022-08-01T08:01:56.686Z,0.83
2022-08-01T08:04:23.776Z,0.90
2022-08-01T08:09:37.430Z,1.20
2022-08-01T08:12:05.453Z,0.90
2022-08-01T08:14:33.354Z,1.20
2022-08-01T08:17:00.167Z,0.77
2022-08-01T08:19:38.558Z,1.00
2022-08-01T08:22:07.124Z,0.80
2022-08-01T08:24:34.400Z,0.80
2022-08-01T08:27:01.385Z,0.87
2022-08-01T08:29:30.001Z,0.70
2022-08-01T08:31:57.266Z,0.80
2022-08-01T08:34:24.340Z,0.80
2022-08-01T08:36:53.793Z,0.97
2022-08-01T08:39:20.765Z,0.80
2022-08-01T08:41:50.051Z,0.83
2022-08-01T08:44:17.305Z,0.97
2022-08-01T08:49:35.511Z,0.83
2022-08-01T08:52:03.450Z,0.90
2022-08-01T08:54:31.078Z,1.20
2022-08-01T08:56:58.569Z,1.00
2022-08-01T08:59:25.817Z,1.00
2022-08-01T09:01:53.617Z,0.90
2022-08-01T09:04:25.947Z,1.00
2022-08-01T09:06:53.554Z,0.80
2022-08-01T09:09:20.453Z,0.80
2022-08-01T09:11:57.530Z,0.87
2022-08-01T09:14:26.756Z,0.87
2022-08-01T09:17:02.731Z,0.87
2022-08-01T09:19:49.846Z,0.93
2022-08-01T09:22:19.586Z,0.70
2022-08-01T09:25:06.168Z,0.80
2022-08-01T09:27:33.063Z,0.87
2022-08-01T09:30:10.267Z,1.00
2022-08-01T09:32:59.308Z,0.80
2022-08-01T09:35:31.032Z,1.00
2022-08-01T09:41:05.132Z,0.90
2022-08-01T09:43:32.792Z,1.07
2022-08-01T09:45:59.974Z,1.10
2022-08-01T09:48:28.376Z,0.90
2022-08-01T09:51:04.113Z,0.70
2022-08-01T09:53:42.132Z,1.00
2022-08-01T09:56:12.223Z,1.00
2022-08-01T09:59:00.057Z,0.90
2022-08-01T10:04:16.905Z,0.80
2022-08-01T10:06:45.452Z,0.90
2022-08-01T10:09:13.685Z,1.00
2022-08-01T10:11:42.179Z,0.90
2022-08-01T10:14:09.054Z,1.10
2022-08-01T10:16:36.979Z,1.10
2022-08-01T10:19:07.113Z,0.93
2022-08-01T10:21:56.713Z,1.13
2022-08-01T10:24:26.655Z,0.90
2022-08-01T10:27:00.804Z,0.90
2022-08-01T10:29:59.140Z,0.90
2022-08-01T10:32:21.423Z,0.87
2022-08-01T10:37:35.429Z,0.73
2022-08-01T10:40:28.951Z,0.90
2022-08-01T10:42:49.106Z,2.53
2022-08-01T10:45:16.238Z,1.03
2022-08-01T10:47:50.695Z,1.30
2022-08-01T10:50:26.195Z,1.30
2022-08-01T10:53:23.348Z,1.20
2022-08-01T10:58:45.268Z,1.30
2022-08-01T11:01:21.426Z,1.30
2022-08-01T11:04:07.064Z,1.20
2022-08-01T11:09:37.297Z,1.40
2022-08-01T11:12:07.460Z,1.30
2022-08-01T11:14:54.725Z,1.00
2022-08-01T11:20:18.568Z,1.00
2022-08-01T11:22:58.691Z,1.20
2022-08-01T11:26:06.817Z,1.20
2022-08-01T11:31:11.544Z,1.20
2022-08-01T11:36:55.867Z,1.17
2022-08-01T11:39:16.369Z,1.00
2022-08-01T11:41:44.878Z,1.30
2022-08-01T11:44:12.979Z,1.00
2022-08-01T11:46:57.899Z,1.20
2022-08-01T11:49:25.682Z,1.10
2022-08-01T11:52:05.839Z,1.10
2022-08-01T11:54:35.139Z,1.20
2022-08-01T11:57:06.734Z,1.00
2022-08-01T11:59:38.194Z,0.90
2022-08-01T12:02:18.962Z,1.07
2022-08-01T12:05:05.141Z,1.13
2022-08-01T12:07:33.565Z,1.10
2022-08-01T12:10:01.780Z,1.00
2022-08-01T12:12:29.164Z,0.97
2022-08-01T12:14:56.590Z,1.20
2022-08-01T12:17:57.935Z,1.00
2022-08-01T12:20:31.335Z,1.10
2022-08-01T12:22:59.421Z,1.10
2022-08-01T12:25:26.283Z,1.10
2022-08-01T12:27:56.438Z,1.23
2022-08-01T12:30:25.190Z,1.00
2022-08-01T12:32:52.830Z,1.13
2022-08-01T12:35:23.588Z,0.90
2022-08-01T12:37:52.146Z,1.17
2022-08-01T12:40:30.618Z,1.07
2022-08-01T12:42:57.993Z,1.00
2022-08-01T12:45:25.498Z,1.00
2022-08-01T12:47:52.348Z,0.90
2022-08-01T12:50:22.952Z,1.10
2022-08-01T12:52:50.146Z,0.97
2022-08-01T12:55:18.525Z,0.90
2022-08-01T12:57:51.912Z,0.93
2022-08-01T13:00:20.069Z,0.93
2022-08-01T13:02:48.122Z,1.07
2022-08-01T13:05:15.645Z,1.40
2022-08-01T13:07:49.645Z,1.20
2022-08-01T13:10:17.154Z,0.90
2022-08-01T13:12:52.194Z,1.00
2022-08-01T13:18:26.549Z,1.10
2022-08-01T13:21:13.601Z,1.03
2022-08-01T13:24:01.304Z,1.00
2022-08-01T13:29:30.574Z,1.10
2022-08-01T13:31:57.513Z,1.07
2022-08-01T13:34:31.017Z,1.20
2022-08-01T13:36:57.901Z,1.00
2022-08-01T13:42:30.322Z,1.00
2022-08-01T13:44:57.297Z,0.80
2022-08-01T13:47:31.192Z,1.00
2022-08-01T13:50:01.925Z,0.90
2022-08-01T13:52:29.267Z,0.90
2022-08-01T13:54:56.044Z,1.10
2022-08-01T13:57:23.389Z,1.07
2022-08-01T13:59:50.226Z,1.60
2022-08-01T14:02:18.254Z,1.07
2022-08-01T14:04:44.964Z,0.80
2022-08-01T14:07:14.830Z,0.90
2022-08-01T14:10:04.735Z,1.93
2022-08-01T14:12:30.837Z,1.10
2022-08-01T14:14:57.566Z,1.33
2022-08-01T14:17:24.495Z,1.10
2022-08-01T14:19:51.617Z,0.83
2022-08-01T14:22:18.883Z,1.07
2022-08-01T14:24:45.721Z,1.27
2022-08-01T14:27:12.590Z,1.43
2022-08-01T14:30:02.170Z,1.00
2022-08-01T14:32:28.729Z,1.17
2022-08-01T14:34:56.726Z,1.03
2022-08-01T14:37:29.302Z,1.10
2022-08-01T14:39:58.737Z,1.00
2022-08-01T14:42:25.993Z,1.17
2022-08-01T14:44:52.846Z,0.90
2022-08-01T14:47:21.854Z,1.10
2022-08-01T14:49:49.690Z,0.80
2022-08-01T14:52:17.398Z,1.10
2022-08-01T14:54:45.990Z,1.10
2022-08-01T14:57:13.076Z,1.03
2022-08-01T14:59:40.831Z,1.00
2022-08-01T15:02:08.454Z,1.00
2022-08-01T15:04:35.547Z,0.90
2022-08-01T15:07:02.320Z,0.90
2022-08-01T15:09:29.096Z,0.97
2022-08-01T15:11:56.031Z,0.90
2022-08-01T15:14:41.280Z,1.00
2022-08-01T15:17:08.846Z,1.20
2022-08-01T15:19:38.998Z,0.80
2022-08-01T15:22:08.932Z,1.00
2022-08-01T15:24:36.058Z,1.00
2022-08-01T15:27:04.320Z,1.00
2022-08-01T15:29:31.402Z,0.93
2022-08-01T15:31:58.322Z,1.00
2022-08-01T15:34:25.123Z,0.90
2022-08-01T15:36:52.097Z,1.10
2022-08-01T15:39:19.137Z,1.03
2022-08-01T15:41:45.855Z,1.00
2022-08-01T15:44:12.637Z,1.00
2022-08-01T15:46:39.385Z,1.40
2022-08-01T15:49:06.428Z,1.20
2022-08-01T15:51:33.427Z,0.90
2022-08-01T15:54:04.307Z,1.20
2022-08-01T15:56:31.359Z,1.13
2022-08-01T15:58:58.205Z,1.00
2022-08-01T16:01:26.887Z,1.07
2022-08-01T16:03:54.102Z,0.90
2022-08-01T16:06:21.166Z,1.10
2022-08-01T16:08:47.947Z,0.90
2022-08-01T16:11:15.836Z,1.07
2022-08-01T16:13:42.770Z,1.00
2022-08-01T16:16:10.259Z,1.10
2022-08-01T16:18:37.043Z,0.90
2022-08-01T16:21:04.698Z,1.10
2022-08-01T16:23:32.095Z,0.90
2022-08-01T16:25:58.856Z,1.20
2022-08-01T16:28:25.758Z,1.10
2022-08-01T16:31:05.027Z,1.20
2022-08-01T16:33:53.423Z,1.03
2022-08-01T16:36:23.337Z,0.90
2022-08-01T16:38:52.017Z,1.00
2022-08-01T16:41:20.139Z,1.10
2022-08-01T16:43:53.965Z,1.10
2022-08-01T16:46:22.093Z,1.10
2022-08-01T16:48:49.267Z,1.30
2022-08-01T16:51:16.212Z,0.90
2022-08-01T16:53:42.995Z,1.00
2022-08-01T16:56:09.752Z,1.00
2022-08-01T16:58:36.666Z,1.00
2022-08-01T17:02:00.689Z,1.03
2022-08-01T17:03:53.087Z,1.10
2022-08-01T17:06:22.678Z,1.00
2022-08-01T17:08:50.189Z,0.90
2022-08-01T17:11:17.160Z,1.10
2022-08-01T17:13:44.083Z,1.03
2022-08-01T17:16:11.731Z,1.40
2022-08-01T17:21:23.198Z,1.00
2022-08-01T17:23:51.061Z,0.90
2022-08-01T17:26:17.862Z,0.97
2022-08-01T17:28:44.597Z,1.20
2022-08-01T17:31:11.399Z,1.00
2022-08-01T17:33:44.675Z,1.50
2022-08-01T17:36:13.199Z,1.30
2022-08-01T17:38:40.003Z,1.20
2022-08-01T17:41:06.925Z,1.07
2022-08-01T17:43:33.781Z,1.10
2022-08-01T17:46:01.158Z,1.00
2022-08-01T17:48:28.397Z,1.20
2022-08-01T17:50:55.549Z,1.10
2022-08-01T17:53:24.042Z,1.27
2022-08-01T17:55:55.965Z,1.13
2022-08-01T17:58:49.115Z,1.00
2022-08-01T18:01:12.756Z,1.10
2022-08-01T18:03:41.409Z,1.00
2022-08-01T18:06:09.169Z,1.27
2022-08-01T18:11:21.139Z,0.97
2022-08-01T18:13:48.002Z,0.80
2022-08-01T18:16:15.821Z,1.20
2022-08-01T18:18:43.002Z,1.50
2022-08-01T18:21:10.508Z,1.30
2022-08-01T18:23:37.313Z,1.27
2022-08-01T18:26:07.263Z,1.10
2022-08-01T18:28:41.593Z,1.37
2022-08-01T18:31:14.297Z,1.00
2022-08-01T18:33:41.193Z,1.00
2022-08-01T18:36:09.760Z,0.97
2022-08-01T18:38:45.404Z,0.90
2022-08-01T18:41:14.411Z,1.17
2022-08-01T18:43:41.456Z,1.10
2022-08-01T18:46:08.279Z,1.10
2022-08-01T18:48:35.017Z,1.10
2022-08-01T18:51:01.790Z,1.20
2022-08-01T18:53:28.670Z,1.00
2022-08-01T18:55:56.350Z,1.17
2022-08-01T18:58:23.806Z,1.20
2022-08-01T19:00:52.127Z,1.30
2022-08-01T19:03:20.657Z,1.50
2022-08-01T19:05:50.841Z,1.60
2022-08-01T19:08:17.714Z,2.50
2022-08-01T19:10:45.050Z,1.77
2022-08-01T19:13:12.064Z,1.77
2022-08-01T19:15:38.814Z,2.10
2022-08-01T19:18:10.201Z,2.40
2022-08-01T19:20:38.934Z,2.47
2022-08-01T19:23:26.036Z,3.63
2022-08-01T19:25:55.143Z,4.20
2022-08-01T19:28:23.900Z,3.40
2022-08-01T19:30:53.809Z,3.00
2022-08-01T19:33:21.028Z,3.10
2022-08-01T19:35:48.245Z,3.33
2022-08-01T19:38:18.269Z,3.73
2022-08-01T19:40:45.665Z,3.60
2022-08-01T19:43:14.406Z,3.63
2022-08-01T19:45:41.437Z,4.10
2022-08-01T19:48:10.323Z,5.50
2022-08-01T19:50:37.103Z,7.27
2022-08-01T19:53:03.996Z,8.83
2022-08-01T19:55:31.301Z,7.37
2022-08-01T19:58:25.372Z,5.37
2022-08-01T20:03:32.674Z,5.23
2022-08-01T20:06:01.177Z,7.67
2022-08-01T20:08:28.047Z,16.80
2022-08-01T20:10:55.713Z,12.67
2022-08-01T20:13:22.518Z,9.03
2022-08-01T20:15:49.313Z,11.70
2022-08-01T20:18:17.131Z,13.23
2022-08-01T20:20:45.660Z,75.50
2022-08-01T20:23:18.628Z,56.90
2022-08-01T20:25:46.537Z,65.17
2022-08-01T20:28:13.421Z,34.10
2022-08-01T20:30:41.803Z,28.67
2022-08-01T20:33:09.134Z,15.13
2022-08-01T20:35:51.570Z,26.60
2022-08-01T20:38:24.184Z,34.27
2022-08-01T20:40:52.363Z,24.97
2022-08-01T20:43:20.313Z,28.57
2022-08-01T20:45:47.539Z,35.53
2022-08-01T20:48:16.547Z,33.77
2022-08-01T20:51:03.600Z,25.97
2022-08-01T20:53:30.955Z,24.87
2022-08-01T20:56:04.533Z,17.50
2022-08-01T20:58:58.275Z,16.80
2022-08-01T21:01:29.485Z,13.90
2022-08-01T21:04:08.644Z,16.33
2022-08-01T21:06:40.363Z,15.73
2022-08-01T21:09:07.209Z,15.47
2022-08-01T21:11:40.087Z,11.40
2022-08-01T21:14:08.458Z,11.57
2022-08-01T21:16:35.259Z,10.67
2022-08-01T21:21:59.819Z,10.47
2022-08-01T21:24:27.183Z,9.13
2022-08-01T21:26:55.428Z,9.53
2022-08-01T21:29:23.185Z,8.93
2022-08-01T21:32:09.854Z,10.37
2022-08-01T21:34:38.348Z,11.03
2022-08-01T21:37:08.983Z,10.30
2022-08-01T21:39:39.030Z,6.50
2022-08-01T21:42:09.264Z,6.37
2022-08-01T21:44:38.463Z,6.90
2022-08-01T21:47:06.562Z,7.40
2022-08-01T21:49:40.623Z,7.77
2022-08-01T21:52:09.110Z,8.20
2022-08-01T21:54:49.240Z,7.80
2022-08-01T21:57:18.116Z,7.57
2022-08-01T21:59:50.067Z,7.70
2022-08-01T22:02:18.254Z,8.97
2022-08-01T22:04:59.154Z,9.27
2022-08-01T22:07:26.105Z,12.60
2022-08-01T22:09:53.231Z,10.60
2022-08-01T22:15:05.099Z,8.37
2022-08-01T22:17:31.825Z,8.33
2022-08-01T22:19:58.676Z,8.30
2022-08-01T22:22:51.047Z,8.20
2022-08-01T22:25:14.568Z,9.10
2022-08-01T22:28:05.700Z,7.90
2022-08-01T22:30:31.082Z,8.13
2022-08-01T22:33:07.551Z,7.23
2022-08-01T22:35:45.123Z,7.30
2022-08-01T22:38:11.949Z,8.07
2022-08-01T22:40:40.388Z,7.57
2022-08-01T22:43:10.781Z,8.87
2022-08-01T22:45:42.361Z,7.00
2022-08-01T22:48:19.018Z,8.43
2022-08-01T22:50:46.970Z,6.77
2022-08-01T22:53:32.006Z,7.23
2022-08-01T22:58:42.868Z,6.40
2022-08-01T23:01:11.009Z,6.53
2022-08-01T23:03:40.035Z,6.63
2022-08-01T23:08:59.848Z,6.57
2022-08-01T23:14:11.127Z,6.93
2022-08-01T23:16:37.900Z,6.10
2022-08-01T23:19:04.952Z,6.53
2022-08-01T23:21:31.805Z,6.43
2022-08-01T23:23:58.602Z,6.07
2022-08-01T23:26:26.509Z,5.70
2022-08-01T23:28:53.333Z,5.87
2022-08-01T23:31:20.811Z,5.40
2022-08-01T23:33:47.616Z,5.07
2022-08-01T23:36:17.645Z,5.13
2022-08-01T23:38:44.839Z,5.43
2022-08-01T23:41:17.421Z,5.43
2022-08-01T23:43:51.982Z,4.23
2022-08-01T23:46:19.353Z,4.07
2022-08-01T23:48:46.624Z,3.53
2022-08-01T23:51:23.887Z,3.47
2022-08-01T23:56:35.647Z,5.83
